Time;durP1;ratioP1;P1;durP2;ratioP2;P2;SDS_P1;SDS_P2;PMS_P1;PMS_P2;Temp;Humidity;BMP_temperature;BMP_pressure;BME280_temperature;BME280_humidity;BME280_pressure;Samples;Min_cycle;Max_cycle;Signal;HPM_P1;HPM_P2
2022/09/21 00:00:41;;;;;;;2.45;1.40;;;;;;;12.08;41.21;92770.97;5049947;28;20109;-73
2022/09/21 00:03:07;;;;;;;4.07;1.35;;;;;;;12.10;41.26;92768.06;5051038;28;20115;-73
2022/09/21 00:05:34;;;;;;;7.88;1.50;;;;;;;12.06;41.38;92767.84;5053905;28;20096;-73
2022/09/21 00:08:01;;;;;;;4.32;1.45;;;;;;;12.06;42.27;92767.06;5051599;28;20031;-73
2022/09/21 00:10:27;;;;;;;2.75;1.35;;;;;;;12.01;42.38;92769.78;5054117;28;20033;-74
2022/09/21 00:12:52;;;;;;;3.83;1.48;;;;;;;11.94;42.94;92762.28;5052090;28;20085;-73
2022/09/21 00:15:18;;;;;;;3.70;1.52;;;;;;;11.87;42.67;92775.78;5053582;28;20179;-73
2022/09/21 00:17:46;;;;;;;2.92;1.40;;;;;;;11.82;43.00;92767.97;5052559;28;20037;-73
2022/09/21 00:20:13;;;;;;;2.88;1.30;;;;;;;11.78;43.08;92774.06;5051988;28;20076;-73
2022/09/21 00:22:40;;;;;;;3.05;1.40;;;;;;;11.71;43.52;92771.81;5052759;28;20105;-74
2022/09/21 00:25:07;;;;;;;2.35;1.20;;;;;;;11.64;43.78;92771.38;5052002;28;20517;-73
2022/09/21 00:27:32;;;;;;;2.90;1.30;;;;;;;11.54;44.26;92771.53;5051871;28;20028;-74
2022/09/21 00:30:03;;;;;;;6.47;1.45;;;;;;;11.48;44.36;92778.66;5053166;28;20523;-73
2022/09/21 00:32:30;;;;;;;3.38;1.40;;;;;;;11.47;43.85;92785.00;5034732;28;20410;-73
2022/09/21 00:34:57;;;;;;;4.25;1.60;;;;;;;11.43;48.37;92776.91;5051982;28;20048;-73
2022/09/21 00:37:23;;;;;;;6.93;1.50;;;;;;;11.40;47.76;92777.47;5051297;28;20068;-73
2022/09/21 00:39:49;;;;;;;4.00;1.50;;;;;;;11.38;46.86;92776.97;5051564;28;20565;-73
2022/09/21 00:42:26;;;;;;;4.80;1.70;;;;;;;11.29;46.60;92780.53;5053029;28;20043;-73
2022/09/21 00:44:52;;;;;;;3.97;1.60;;;;;;;11.17;46.60;92778.34;5051379;28;20557;-73
2022/09/21 00:47:32;;;;;;;3.53;1.60;;;;;;;11.02;47.69;92781.91;5052758;28;20100;-73
2022/09/21 00:50:01;;;;;;;3.40;1.33;;;;;;;10.92;48.23;92782.03;5054129;28;20037;-73
2022/09/21 00:52:30;;;;;;;3.63;1.52;;;;;;;10.77;49.14;92780.38;5052785;28;20029;-73
2022/09/21 00:55:11;;;;;;;4.00;1.58;;;;;;;10.71;50.31;92781.50;5051120;28;20041;-73
2022/09/21 00:57:37;;;;;;;3.63;1.60;;;;;;;10.65;50.83;92787.84;5034505;28;20329;-73
2022/09/21 01:00:08;;;;;;;6.00;1.70;;;;;;;10.68;50.67;92792.53;5051238;28;20040;-72
2022/09/21 01:02:35;;;;;;;3.72;1.40;;;;;;;10.70;50.36;92793.03;5031149;28;20095;-73
2022/09/21 01:05:05;;;;;;;2.67;1.45;;;;;;;10.70;51.66;92790.41;5042802;28;20116;-73
2022/09/21 01:07:34;;;;;;;3.72;1.63;;;;;;;10.59;51.09;92782.66;5052204;28;20029;-73
2022/09/21 01:10:05;;;;;;;3.08;1.42;;;;;;;10.51;50.45;92792.94;5034712;28;20080;-73
2022/09/21 01:12:39;;;;;;;3.22;1.50;;;;;;;10.45;50.19;92789.63;5052349;28;20052;-73
2022/09/21 01:15:33;;;;;;;2.75;1.42;;;;;;;10.39;49.88;92798.56;5030211;28;20076;-72
2022/09/21 01:18:10;;;;;;;7.38;1.55;;;;;;;10.29;50.29;92790.81;5032487;28;20037;-73
2022/09/21 01:20:51;;;;;;;3.63;1.50;;;;;;;10.22;50.17;92798.94;5042935;28;20043;-73
2022/09/21 01:23:25;;;;;;;5.53;1.42;;;;;;;10.20;50.17;92796.63;5067581;28;20045;-73
2022/09/21 01:25:58;;;;;;;6.43;1.48;;;;;;;10.22;49.97;92788.47;5044104;28;20291;-73
2022/09/21 01:28:45;;;;;;;3.42;1.50;;;;;;;10.18;50.26;92795.34;5050646;28;20060;-73
2022/09/21 01:31:19;;;;;;;2.28;1.23;;;;;;;10.10;51.06;92799.31;5049643;28;20040;-73
2022/09/21 01:33:51;;;;;;;3.30;1.48;;;;;;;10.10;51.45;92799.31;5050308;28;20106;-73
2022/09/21 01:36:23;;;;;;;2.78;1.40;;;;;;;10.11;50.97;92802.72;5053492;28;20054;-74
2022/09/21 01:39:01;;;;;;;2.53;1.40;;;;;;;10.06;51.15;92795.69;5050158;28;20048;-73
2022/09/21 01:41:31;;;;;;;2.78;1.33;;;;;;;10.10;50.59;92794.09;5050222;28;20048;-73
2022/09/21 01:44:07;;;;;;;4.85;1.63;;;;;;;10.10;51.21;92801.94;5050607;28;20037;-73
2022/09/21 01:46:35;;;;;;;6.45;1.70;;;;;;;10.07;52.52;92802.50;5049465;28;20029;-73
2022/09/21 01:49:23;;;;;;;4.75;1.60;;;;;;;10.03;51.99;92792.84;5050728;28;20032;-73
2022/09/21 01:51:59;;;;;;;5.75;1.60;;;;;;;10.06;51.86;92798.31;5049195;28;20068;-72
2022/09/21 01:54:33;;;;;;;4.43;2.35;;;;;;;10.05;52.31;92802.00;5033395;28;20507;-73
2022/09/21 01:57:18;;;;;;;4.30;1.42;;;;;;;10.02;52.92;92797.31;5033537;28;20050;-73
2022/09/21 02:00:05;;;;;;;5.05;1.40;;;;;;;10.00;53.13;92799.41;5050160;28;20449;-73
2022/09/21 02:02:57;;;;;;;2.65;1.50;;;;;;;9.94;53.76;92803.13;5051071;28;20348;-73
2022/09/21 02:05:25;;;;;;;3.42;1.30;;;;;;;9.91;53.85;92804.47;5033487;28;20033;-73
2022/09/21 02:07:52;;;;;;;3.80;1.38;;;;;;;9.88;53.56;92801.59;5033520;28;20029;-73
2022/09/21 02:10:28;;;;;;;3.28;1.42;;;;;;;9.86;53.11;92809.72;5049749;28;20502;-72
2022/09/21 02:13:00;;;;;;;3.95;1.60;;;;;;;9.88;54.09;92812.06;5050135;28;20063;-73
2022/09/21 02:15:36;;;;;;;3.53;1.50;;;;;;;9.87;54.70;92806.06;5050204;28;20037;-73
2022/09/21 02:18:13;;;;;;;3.40;1.50;;;;;;;9.82;55.09;92807.91;5066203;28;20095;-73
2022/09/21 02:20:48;;;;;;;3.67;1.60;;;;;;;9.75;55.35;92809.03;5033107;28;20083;-73
2022/09/21 02:23:34;;;;;;;4.40;1.58;;;;;;;9.74;55.11;92810.06;5050829;28;20048;-72
2022/09/21 02:26:12;;;;;;;2.92;1.67;;;;;;;9.75;55.56;92814.25;5050937;28;20065;-73
2022/09/21 02:28:54;;;;;;;4.22;1.60;;;;;;;9.72;56.37;92809.53;5049083;28;20045;-73
2022/09/21 02:31:29;;;;;;;;;;;;;;;9.69;56.43;92811.94;5049750;28;20514;-72
2022/09/21 02:34:00;;;;;;;3.63;1.65;;;;;;;9.67;56.53;92811.44;5049126;28;19913;-73
2022/09/21 02:36:43;;;;;;;4.63;1.70;;;;;;;9.64;56.76;92807.53;5049011;28;20103;-73
2022/09/21 02:39:24;;;;;;;4.20;1.50;;;;;;;9.62;56.91;92814.84;5050863;28;20299;-73
2022/09/21 02:42:06;;;;;;;5.43;1.70;;;;;;;9.61;56.62;92817.72;5048661;28;20451;-72
2022/09/21 02:44:46;;;;;;;3.47;1.40;;;;;;;9.54;56.37;92813.59;5049801;28;20380;-73
2022/09/21 02:47:28;;;;;;;3.40;1.50;;;;;;;9.51;56.38;92818.59;5050762;28;20136;-73
2022/09/21 02:50:00;;;;;;;7.25;1.58;;;;;;;9.50;56.00;92817.00;5052125;28;20032;-73
2022/09/21 02:52:27;;;;;;;;;;;;;;;9.48;55.44;92819.09;5053433;28;20087;-73
2022/09/21 02:54:54;;;;;;;2.90;1.50;;;;;;;9.42;55.73;92812.38;5029523;28;19927;-73
2022/09/21 02:57:22;;;;;;;3.30;1.50;;;;;;;9.45;54.26;92820.44;5029192;28;20041;-72
2022/09/21 02:59:49;;;;;;;3.15;1.88;;;;;;;9.46;53.48;92816.78;5030728;28;20048;-73
2022/09/21 03:02:14;;;;;;;3.30;1.40;;;;;;;9.51;51.70;92819.38;5040689;28;20037;-73
2022/09/21 03:04:46;;;;;;;4.10;1.70;;;;;;;9.58;51.00;92822.44;5032154;28;20406;-73
2022/09/21 03:07:12;;;;;;;3.60;1.42;;;;;;;9.66;49.93;92823.72;5049215;28;20025;-73
2022/09/21 03:09:38;;;;;;;3.60;1.50;;;;;;;9.72;50.18;92825.22;5032773;28;20052;-73
2022/09/21 03:12:04;;;;;;;6.53;1.40;;;;;;;9.75;49.80;92823.94;5050238;28;20024;-73
2022/09/21 03:14:31;;;;;;;4.05;1.40;;;;;;;9.79;51.16;92824.94;5049710;28;20032;-73
2022/09/21 03:16:57;;;;;;;3.47;1.60;;;;;;;9.85;48.90;92821.22;5050273;28;20041;-73
2022/09/21 03:19:24;;;;;;;2.63;1.40;;;;;;;9.86;50.07;92819.38;5050047;28;20402;-72
2022/09/21 03:21:50;;;;;;;3.63;1.67;;;;;;;9.84;50.84;92821.50;5065564;28;20500;-73
2022/09/21 03:24:44;;;;;;;5.30;1.60;;;;;;;9.79;51.03;92824.94;5047951;28;20029;-73
2022/09/21 03:27:02;;;;;;;5.85;1.50;;;;;;;9.76;50.79;92830.72;5049141;28;20040;-73
2022/09/21 03:29:27;;;;;;;5.68;1.48;;;;;;;9.73;50.12;92820.81;5032831;28;20028;-73
2022/09/21 03:31:54;;;;;;;4.00;1.60;;;;;;;9.74;50.30;92827.59;5049221;28;20490;-73
2022/09/21 03:34:20;;;;;;;4.22;1.45;;;;;;;9.75;49.54;92823.94;5050811;28;20064;-73
2022/09/21 03:36:47;;;;;;;1.95;1.20;;;;;;;9.77;49.56;92827.03;5032850;28;20372;-73
2022/09/21 03:39:13;;;;;;;4.32;1.60;;;;;;;9.80;49.79;92839.56;5069462;28;20092;-73
2022/09/21 03:41:39;;;;;;;2.30;1.40;;;;;;;9.83;48.72;92835.63;5052907;28;20467;-73
2022/09/21 03:44:04;;;;;;;5.50;1.75;;;;;;;9.87;48.68;92834.03;5052720;28;20040;-73
2022/09/21 03:46:34;;;;;;;3.42;1.45;;;;;;;9.91;48.55;92832.44;5033839;28;20402;-73
2022/09/21 03:49:01;;;;;;;3.97;1.45;;;;;;;9.95;49.00;92836.06;5052831;28;20037;-73
2022/09/21 03:51:30;;;;;;;2.85;1.20;;;;;;;9.98;48.92;92832.91;5053896;28;20074;-73
2022/09/21 03:53:56;;;;;;;4.65;1.60;;;;;;;10.01;48.25;92837.59;5053061;28;20040;-73
2022/09/21 03:56:22;;;;;;;2.83;1.40;;;;;;;10.05;47.88;92838.59;5052461;28;20075;-73
2022/09/21 03:58:47;;;;;;;4.45;1.60;;;;;;;10.11;47.41;92841.94;5053594;28;20495;-73
2022/09/21 04:01:13;;;;;;;4.88;1.40;;;;;;;10.13;47.27;92840.66;5052930;28;20095;-73
2022/09/21 04:03:38;;;;;;;2.92;1.50;;;;;;;10.18;47.07;92839.81;5035984;28;20049;-73
2022/09/21 04:06:08;;;;;;;4.53;1.50;;;;;;;10.18;46.84;92837.97;5053930;28;20025;-73
2022/09/21 04:08:34;;;;;;;5.03;1.50;;;;;;;10.22;46.61;92832.97;5037485;28;20091;-73
2022/09/21 04:10:59;;;;;;;2.78;1.40;;;;;;;10.23;46.58;92839.00;5048092;28;20493;-73
2022/09/21 04:13:25;;;;;;;3.25;1.40;;;;;;;10.22;46.39;92835.56;5065543;28;21698;-73
2022/09/21 04:15:50;;;;;;;2.85;1.40;;;;;;;10.29;45.66;92835.28;5060438;28;20040;-76
2022/09/21 04:18:16;;;;;;;4.47;1.45;;;;;;;10.38;45.56;92839.66;5064515;28;20040;-76
2022/09/21 04:20:41;;;;;;;3.45;1.55;;;;;;;10.40;45.84;92840.19;5065498;28;20361;-76
2022/09/21 04:23:08;;;;;;;2.47;1.50;;;;;;;10.36;46.33;92846.25;5065027;28;20059;-76
2022/09/21 04:25:34;;;;;;;3.20;1.40;;;;;;;10.28;47.27;92844.19;5049079;28;20083;-76
2022/09/21 04:28:00;;;;;;;3.25;1.60;;;;;;;10.21;47.77;92850.50;5043515;28;20064;-75
2022/09/21 04:30:26;;;;;;;3.95;1.50;;;;;;;10.14;48.13;92847.41;5051280;28;20456;-76
2022/09/21 04:32:52;;;;;;;3.15;1.40;;;;;;;10.10;49.26;92851.63;5033067;28;20033;-75
2022/09/21 04:35:18;;;;;;;3.83;1.50;;;;;;;10.12;48.71;92849.53;5045097;28;20136;-75
2022/09/21 04:37:43;;;;;;;5.22;1.50;;;;;;;10.14;48.59;92852.66;5051766;28;20124;-75
2022/09/21 04:40:09;;;;;;;3.22;1.60;;;;;;;10.15;48.35;92850.81;5034206;28;20044;-78
2022/09/21 04:42:35;;;;;;;4.10;1.70;;;;;;;10.18;48.42;92855.53;5050277;28;20041;-75
2022/09/21 04:45:00;;;;;;;3.38;1.60;;;;;;;10.19;48.30;92854.44;5059615;28;20097;-76
2022/09/21 04:47:28;;;;;;;8.05;2.13;;;;;;;10.20;49.14;92856.03;5061093;28;20035;-76
2022/09/21 04:49:54;;;;;;;4.43;1.58;;;;;;;10.24;48.86;92859.63;5070448;28;20064;-77
2022/09/21 04:52:20;;;;;;;2.67;1.40;;;;;;;10.30;48.05;92860.41;5053391;28;20064;-76
2022/09/21 04:54:46;;;;;;;3.65;1.50;;;;;;;10.37;48.35;92855.63;5041713;28;20099;-76
2022/09/21 04:57:12;;;;;;;4.57;1.60;;;;;;;10.40;48.63;92862.94;5036463;28;22067;-78
2022/09/21 04:59:38;;;;;;;6.88;1.67;;;;;;;10.41;49.25;92859.28;5049905;28;20036;-77
2022/09/21 05:02:04;;;;;;;5.95;1.70;;;;;;;10.42;49.34;92863.44;5062833;28;20052;-77
2022/09/21 05:04:29;;;;;;;3.53;1.60;;;;;;;10.43;49.39;92864.25;5052045;28;20037;-77
2022/09/21 05:06:57;;;;;;;3.97;1.58;;;;;;;10.48;49.96;92864.97;5050500;28;20063;-78
2022/09/21 05:12:06;;;;;;;4.47;1.73;;;;;;;10.43;51.47;92866.84;5052715;28;20039;-77
2022/09/21 05:14:32;;;;;;;2.75;1.50;;;;;;;10.37;51.35;92876.56;5052747;28;20395;-76
2022/09/21 05:16:57;;;;;;;4.03;1.58;;;;;;;10.32;52.22;92881.84;5032485;28;20381;-77
2022/09/21 05:19:23;;;;;;;5.32;1.70;;;;;;;10.25;52.23;92879.53;5031554;28;20049;-77
2022/09/21 05:21:48;;;;;;;2.92;1.40;;;;;;;10.24;52.00;92885.03;5049438;28;20033;-77
2022/09/21 05:24:14;;;;;;;5.25;1.73;;;;;;;10.23;52.48;92886.09;5036542;28;20040;-77
2022/09/21 05:26:39;;;;;;;3.75;1.60;;;;;;;10.20;52.13;92885.56;5040491;28;20371;-77
2022/09/21 05:29:05;;;;;;;4.47;1.63;;;;;;;10.24;52.82;92887.63;5048948;28;20051;-77
2022/09/21 05:31:40;;;;;;;4.88;1.85;;;;;;;10.23;52.94;92884.25;5038240;28;20129;-75
2022/09/21 05:34:15;;;;;;;4.57;1.55;;;;;;;10.23;53.47;92883.47;5050655;28;20032;-74
2022/09/21 05:36:51;;;;;;;5.60;1.60;;;;;;;10.26;53.09;92886.31;5045364;28;20037;-74
2022/09/21 05:39:17;;;;;;;8.05;1.83;;;;;;;10.26;54.12;92888.16;5051295;28;20451;-74
2022/09/21 05:41:43;;;;;;;3.72;1.50;;;;;;;10.29;53.68;92890.22;5067354;28;20142;-75
2022/09/21 05:44:13;;;;;;;6.63;1.70;;;;;;;10.32;53.93;92893.09;5051737;28;20518;-74
2022/09/21 05:46:51;;;;;;;3.95;1.42;;;;;;;10.33;54.29;92899.88;5049123;28;20059;-74
2022/09/21 05:49:21;;;;;;;10.48;1.70;;;;;;;10.34;53.92;92901.47;5052664;28;20086;-74
2022/09/21 05:52:05;;;;;;;11.48;1.70;;;;;;;10.38;52.70;92899.06;5051618;28;20040;-74
2022/09/21 05:54:43;;;;;;;7.22;1.60;;;;;;;10.48;51.66;92903.44;5067142;28;20559;-74
2022/09/21 05:57:14;;;;;;;4.75;1.63;;;;;;;10.50;51.66;92902.13;5050809;28;20079;-74
2022/09/21 06:00:01;;;;;;;6.63;1.73;;;;;;;10.53;54.25;92906.00;5047984;28;20040;-74
2022/09/21 06:03:05;;;;;;;4.80;1.60;;;;;;;10.55;54.16;92909.91;5065547;28;20033;-73
2022/09/21 06:05:30;;;;;;;6.25;2.05;;;;;;;10.55;55.26;92909.91;5050316;28;20044;-74
2022/09/21 06:07:56;;;;;;;3.38;1.40;;;;;;;10.56;54.70;92914.13;5050113;28;20036;-74
2022/09/21 06:10:23;;;;;;;6.13;1.60;;;;;;;10.59;53.81;92908.31;5051152;28;20037;-74
2022/09/21 06:12:49;;;;;;;2.60;1.40;;;;;;;10.65;54.06;92914.31;5050100;28;20037;-74
2022/09/21 06:15:15;;;;;;;6.05;1.70;;;;;;;10.70;54.89;92926.56;5066892;28;20039;-74
2022/09/21 06:17:41;;;;;;;7.22;1.70;;;;;;;10.72;55.37;92914.75;5049935;28;20446;-75
2022/09/21 06:20:07;;;;;;;4.03;1.48;;;;;;;10.76;56.33;92914.97;5065119;28;20130;-74
2022/09/21 06:22:34;;;;;;;4.38;1.40;;;;;;;10.77;56.10;92917.31;5049260;28;20040;-74
2022/09/21 06:24:59;;;;;;;9.95;1.88;;;;;;;10.80;56.77;92918.59;5049739;28;20099;-74
2022/09/21 06:27:27;;;;;;;3.90;1.40;;;;;;;10.82;57.51;92916.50;5066688;28;20045;-74
2022/09/21 06:29:53;;;;;;;6.07;1.60;;;;;;;10.84;56.37;92922.22;5050235;28;20029;-74
2022/09/21 06:32:18;;;;;;;5.38;1.73;;;;;;;10.87;56.83;92924.28;5049828;28;20040;-75
2022/09/21 06:34:44;;;;;;;3.60;1.52;;;;;;;10.90;59.56;92925.56;5051004;28;20045;-75
2022/09/21 06:37:09;;;;;;;4.53;1.80;;;;;;;10.91;59.01;92933.16;5049673;28;20118;-75
2022/09/21 06:39:35;;;;;;;3.97;1.60;;;;;;;10.91;58.84;92933.16;5049757;28;20508;-74
2022/09/21 06:42:00;;;;;;;3.90;1.60;;;;;;;10.92;58.84;92934.75;5049051;28;20078;-74
2022/09/21 06:44:28;;;;;;;4.13;1.60;;;;;;;10.93;58.56;92935.50;5033086;28;20122;-74
2022/09/21 06:46:54;;;;;;;3.85;1.48;;;;;;;10.93;58.66;92940.75;5049505;28;20391;-75
2022/09/21 06:49:19;;;;;;;5.15;1.40;;;;;;;10.93;58.16;92941.53;5033219;28;20346;-75
2022/09/21 06:51:47;;;;;;;2.38;1.40;;;;;;;10.96;56.47;92950.66;5032351;28;20037;-74
2022/09/21 06:54:12;;;;;;;5.50;1.55;;;;;;;10.95;56.28;92949.91;5050675;28;20528;-74
2022/09/21 06:56:38;;;;;;;4.18;1.58;;;;;;;10.98;54.87;92946.72;5050638;28;20041;-74
2022/09/21 06:59:04;;;;;;;5.95;1.55;;;;;;;10.98;54.50;92949.31;5032607;28;20091;-74
2022/09/21 07:01:29;;;;;;;3.50;1.45;;;;;;;10.96;54.64;92964.53;5032326;28;20524;-74
2022/09/21 07:03:55;;;;;;;4.82;1.65;;;;;;;11.10;51.54;92969.94;5049142;28;20041;-75
2022/09/21 07:06:20;;;;;;;8.13;1.77;;;;;;;10.92;52.65;92976.66;5049262;28;20048;-74
2022/09/21 07:08:46;;;;;;;2.60;1.38;;;;;;;10.75;52.89;92984.91;5048947;28;20048;-74
2022/09/21 07:11:12;;;;;;;3.28;1.50;;;;;;;10.68;53.71;92979.19;5049587;28;20098;-74
2022/09/21 07:13:39;;;;;;;3.25;1.60;;;;;;;10.62;55.26;92986.28;5032140;28;20652;-75
2022/09/21 07:16:06;;;;;;;3.28;1.50;;;;;;;10.63;55.05;92980.03;5048986;28;20572;-74
2022/09/21 07:18:37;;;;;;;2.92;1.27;;;;;;;10.69;54.51;92999.06;5050086;28;20113;-74
2022/09/21 07:21:08;;;;;;;5.72;1.70;;;;;;;10.68;55.01;92996.75;5048861;28;20045;-74
2022/09/21 07:23:34;;;;;;;5.40;1.65;;;;;;;10.72;55.67;93003.00;5050146;28;20072;-74
2022/09/21 07:26:02;;;;;;;5.75;1.80;;;;;;;10.62;57.20;92994.16;5050209;28;20120;-74
2022/09/21 07:28:28;;;;;;;3.13;1.60;;;;;;;10.64;58.11;93006.97;5065555;28;20037;-74
2022/09/21 07:30:55;;;;;;;4.35;1.60;;;;;;;10.70;59.16;93013.75;5048886;28;20111;-74
2022/09/21 07:33:21;;;;;;;5.03;1.80;;;;;;;10.72;61.01;93011.63;5031146;28;20029;-73
2022/09/21 07:35:55;;;;;;;3.53;1.50;;;;;;;10.68;61.45;93012.47;5048833;28;20049;-74
2022/09/21 07:38:22;;;;;;;5.28;1.90;;;;;;;10.67;60.86;93016.13;5048657;28;20045;-73
2022/09/21 07:40:48;;;;;;;4.85;1.80;;;;;;;10.67;59.15;93011.66;5065510;28;20123;-73
2022/09/21 07:43:14;;;;;;;3.10;1.50;;;;;;;10.67;58.55;93009.03;5032073;28;20329;-73
2022/09/21 07:45:39;;;;;;;5.20;1.90;;;;;;;10.68;58.76;93017.69;5031841;28;20589;-73
2022/09/21 07:48:07;;;;;;;5.57;1.73;;;;;;;10.68;59.61;93013.22;5047096;28;20028;-74
2022/09/21 07:50:33;;;;;;;4.07;1.60;;;;;;;10.70;60.03;93012.97;5049282;28;20064;-74
2022/09/21 07:53:00;;;;;;;7.88;1.50;;;;;;;10.63;61.13;93021.13;5049254;28;20517;-74
2022/09/21 07:55:27;;;;;;;3.17;1.60;;;;;;;10.58;61.76;93027.19;5048297;28;20156;-74
2022/09/21 08:00:37;;;;;;;6.13;1.70;;;;;;;10.59;63.49;93031.34;5049983;28;20107;-74
2022/09/21 08:03:03;;;;;;;4.22;1.85;;;;;;;10.56;63.82;93034.53;5048468;28;20121;-74
2022/09/21 08:05:29;;;;;;;5.30;1.85;;;;;;;10.56;64.59;93031.09;5049510;28;20033;-74
2022/09/21 08:07:55;;;;;;;2.92;1.77;;;;;;;10.54;66.49;93033.25;5049757;28;20041;-74
2022/09/21 08:10:22;;;;;;;4.60;1.80;;;;;;;10.55;66.83;93029.56;5049975;28;20119;-74
2022/09/21 08:12:48;;;;;;;6.55;2.08;;;;;;;10.60;68.67;93038.19;5065268;28;20029;-74
2022/09/21 08:15:14;;;;;;;4.05;1.88;;;;;;;10.63;68.25;93042.06;5049418;28;20453;-73
2022/09/21 08:17:40;;;;;;;6.10;2.00;;;;;;;10.66;69.89;93041.53;5065179;28;20415;-73
2022/09/21 08:20:06;;;;;;;7.20;2.00;;;;;;;10.68;70.19;93042.03;5032010;28;20033;-73
2022/09/21 08:22:32;;;;;;;6.75;2.10;;;;;;;10.66;70.92;93053.84;5048746;28;20041;-74
2022/09/21 08:24:57;;;;;;;4.18;1.90;;;;;;;10.67;73.18;93052.78;5053424;28;20051;-73
2022/09/21 08:27:24;;;;;;;4.88;2.10;;;;;;;10.68;72.77;93060.38;5053181;28;20418;-74
2022/09/21 08:29:50;;;;;;;5.47;2.05;;;;;;;10.66;73.21;93056.47;5053451;28;20055;-74
2022/09/21 08:32:16;;;;;;;4.72;2.20;;;;;;;10.65;73.69;93060.13;5051593;28;20044;-74
2022/09/21 08:34:41;;;;;;;5.47;1.80;;;;;;;10.76;73.32;93064.22;5053416;28;20036;-74
2022/09/21 08:37:07;;;;;;;7.20;2.15;;;;;;;10.70;73.65;93068.72;5052946;28;20541;-74
2022/09/21 08:39:33;;;;;;;8.65;2.17;;;;;;;10.69;73.23;93072.38;5053296;28;20059;-74
2022/09/21 08:42:20;;;;;;;5.88;1.98;;;;;;;10.69;73.18;93077.63;5035413;28;20041;-74
2022/09/21 08:44:59;;;;;;;4.60;1.95;;;;;;;10.63;73.53;93070.88;5068690;28;20045;-74
2022/09/21 08:47:42;;;;;;;5.15;2.13;;;;;;;10.69;74.78;93076.84;5052845;28;20017;-74
2022/09/21 08:50:36;;;;;;;7.15;2.05;;;;;;;10.67;75.06;93073.72;5051709;28;20037;-74
2022/09/21 08:53:28;;;;;;;4.03;2.00;;;;;;;10.69;75.09;93082.88;5052912;28;20060;-74
2022/09/21 08:55:57;;;;;;;8.02;2.22;;;;;;;10.71;74.81;93077.38;5052759;28;20506;-73
2022/09/21 08:58:25;;;;;;;6.55;2.20;;;;;;;10.73;74.71;93080.50;5031338;28;20099;-73
2022/09/21 09:01:20;;;;;;;5.10;2.20;;;;;;;10.75;75.04;93088.88;5031656;28;20053;-74
2022/09/21 09:04:15;;;;;;;8.60;2.22;;;;;;;10.80;74.81;93088.81;5013718;28;20092;-74
2022/09/21 09:06:51;;;;;;;6.03;2.10;;;;;;;10.83;74.82;93088.28;5032879;28;20061;-74
2022/09/21 09:09:26;;;;;;;4.38;1.83;;;;;;;10.90;75.06;93087.97;5046792;28;20033;-74
2022/09/21 09:12:10;;;;;;;4.50;1.88;;;;;;;10.99;75.08;93087.13;5052620;28;20048;-74
2022/09/21 09:15:12;;;;;;;6.43;2.05;;;;;;;11.12;74.29;93082.31;5051336;28;20040;-74
2022/09/21 09:17:49;;;;;;;3.72;2.05;;;;;;;11.19;74.11;93082.75;5052323;28;20052;-74
2022/09/21 09:20:18;;;;;;;4.03;1.88;;;;;;;11.29;74.24;93098.41;5049280;28;20036;-74
2022/09/21 09:22:49;;;;;;;4.47;2.00;;;;;;;11.34;73.34;93093.13;5051215;28;20078;-73
2022/09/21 09:25:23;;;;;;;4.03;1.95;;;;;;;11.43;72.08;93096.72;5050988;28;20033;-74
2022/09/21 09:28:03;;;;;;;4.05;2.03;;;;;;;11.44;71.82;93093.06;5034474;28;20052;-73
2022/09/21 09:30:34;;;;;;;4.47;1.80;;;;;;;11.52;71.17;93098.75;5067834;28;20116;-74
2022/09/21 09:33:19;;;;;;;4.82;1.85;;;;;;;11.54;71.41;93097.41;5064180;28;20098;-73
2022/09/21 09:35:50;;;;;;;5.47;2.00;;;;;;;11.51;71.23;93100.59;5066581;28;20495;-73
2022/09/21 09:38:37;;;;;;;4.63;2.00;;;;;;;11.57;72.01;93099.50;5067441;28;20483;-74
2022/09/21 09:41:24;;;;;;;6.10;2.10;;;;;;;11.57;72.12;93098.69;5050963;28;20032;-73
2022/09/21 09:44:16;;;;;;;6.90;2.20;;;;;;;11.62;71.60;93098.66;5048683;28;20483;-73
2022/09/21 09:47:03;;;;;;;5.47;2.40;;;;;;;11.72;71.62;93103.78;5052384;28;20040;-73
2022/09/21 09:49:37;;;;;;;6.20;2.17;;;;;;;11.79;72.49;93098.22;5047550;28;20544;-74
2022/09/21 09:52:04;;;;;;;4.85;2.20;;;;;;;11.92;71.85;93107.31;5051730;28;20459;-74
2022/09/21 09:54:33;;;;;;;5.60;1.90;;;;;;;11.94;71.08;93099.94;5051501;28;20048;-73
2022/09/21 09:57:03;;;;;;;5.07;2.70;;;;;;;12.00;70.86;93101.44;5050501;28;20044;-73
2022/09/21 09:59:31;;;;;;;3.70;2.22;;;;;;;11.98;71.16;93095.69;5051636;28;20037;-74
2022/09/21 10:02:01;;;;;;;4.55;1.90;;;;;;;11.99;72.21;93097.25;5051768;28;20064;-74
2022/09/21 10:04:27;;;;;;;6.15;2.20;;;;;;;11.99;72.64;93099.88;5065586;28;20033;-73
2022/09/21 10:06:52;;;;;;;3.88;2.10;;;;;;;11.94;72.51;93103.34;5066759;28;20076;-74
2022/09/21 10:09:27;;;;;;;6.20;2.20;;;;;;;11.92;72.76;93107.31;5050193;28;20062;-73
2022/09/21 10:12:14;;;;;;;8.07;2.50;;;;;;;11.89;72.80;93103.41;5049902;28;20071;-76
2022/09/21 10:14:48;;;;;;;5.78;2.30;;;;;;;11.96;72.65;93105.69;5050046;28;20075;-73
2022/09/21 10:17:16;;;;;;;6.68;2.45;;;;;;;11.91;73.59;93108.34;5066513;28;20033;-74
2022/09/21 10:19:42;;;;;;;4.53;2.30;;;;;;;11.84;73.65;93098.97;5051421;28;20082;-74
2022/09/21 10:22:16;;;;;;;6.35;2.40;;;;;;;11.95;75.06;93098.88;5051124;28;20387;-74
2022/09/21 10:24:48;;;;;;;5.90;2.55;;;;;;;11.88;78.22;93107.84;5051039;28;20060;-74
2022/09/21 10:27:17;;;;;;;5.05;2.35;;;;;;;11.99;75.69;93102.50;5066558;28;20104;-74
2022/09/21 10:29:47;;;;;;;6.53;2.60;;;;;;;12.02;75.03;93094.06;5066238;28;20501;-73
2022/09/21 10:32:13;;;;;;;5.75;2.50;;;;;;;12.06;75.60;93097.69;5049864;28;20407;-73
2022/09/21 10:35:00;;;;;;;6.18;2.50;;;;;;;12.05;75.51;93096.94;5053580;28;20041;-74
2022/09/21 10:37:36;;;;;;;5.82;2.53;;;;;;;12.02;74.26;93096.69;5049171;28;20067;-74
2022/09/21 10:40:03;;;;;;;7.32;2.92;;;;;;;12.01;72.98;93097.75;5049934;28;20418;-74
2022/09/21 10:42:34;;;;;;;6.40;2.67;;;;;;;12.01;73.46;93095.91;5049478;28;20528;-75
2022/09/21 10:45:14;;;;;;;11.23;2.80;;;;;;;12.08;72.07;93098.97;5050859;28;20088;-74
2022/09/21 10:47:49;;;;;;;6.93;2.50;;;;;;;12.13;72.08;93095.50;5048596;28;20375;-74
2022/09/21 10:50:42;;;;;;;6.30;2.67;;;;;;;12.22;73.01;93093.06;5066461;28;20048;-74
2022/09/21 10:53:07;;;;;;;;;;;;;;;12.21;72.45;93100.16;5045942;28;20075;-74
2022/09/21 10:55:37;;;;;;;5.03;2.50;;;;;;;12.26;73.87;93088.81;5050619;28;19916;-74
2022/09/21 10:58:08;;;;;;;5.22;2.70;;;;;;;12.39;71.38;93100.47;5053700;28;20068;-74
2022/09/21 11:00:50;;;;;;;6.22;2.70;;;;;;;12.32;74.16;93097.41;5049349;28;20407;-74
2022/09/21 11:03:41;;;;;;;6.63;2.90;;;;;;;12.25;72.42;93092.50;5049332;28;20051;-73
2022/09/21 11:06:20;;;;;;;6.20;2.60;;;;;;;12.16;74.39;93104.66;5049898;28;20529;-74
2022/09/21 11:09:03;;;;;;;5.63;2.63;;;;;;;12.09;75.51;93097.13;5049884;28;20025;-74
2022/09/21 11:11:49;;;;;;;4.90;2.70;;;;;;;12.05;78.31;93099.56;5032619;28;20479;-75
2022/09/21 11:14:37;;;;;;;7.25;2.83;;;;;;;11.92;77.65;93102.84;5050185;28;20135;-74
2022/09/21 11:17:13;;;;;;;7.10;2.83;;;;;;;11.89;77.21;93092.91;5048999;28;20037;-74
2022/09/21 11:20:30;;;;;;;5.53;2.72;;;;;;;11.89;79.08;93108.66;5029327;28;20043;-74
2022/09/21 11:23:14;;;;;;;4.93;2.70;;;;;;;11.96;79.30;93089.97;5007100;28;20099;-74
2022/09/21 11:25:52;;;;;;;10.77;2.75;;;;;;;12.03;78.08;93095.66;5029179;28;20128;-74
2022/09/21 11:28:30;;;;;;;7.20;2.60;;;;;;;12.15;78.48;93098.66;5036783;28;20081;-74
2022/09/21 11:31:05;;;;;;;7.15;2.78;;;;;;;12.25;79.11;93101.16;5050431;28;20029;-74
2022/09/21 11:33:48;;;;;;;4.82;2.80;;;;;;;12.12;80.65;93096.59;5065606;28;20043;-74
2022/09/21 11:36:40;;;;;;;7.43;3.03;;;;;;;12.02;81.83;93097.50;5065462;28;20043;-74
2022/09/21 11:39:34;;;;;;;6.22;2.92;;;;;;;12.02;83.57;93101.94;5049795;28;20062;-74
2022/09/21 11:42:18;;;;;;;6.47;2.95;;;;;;;11.94;84.69;93097.31;5048520;28;20464;-74
2022/09/21 11:44:51;;;;;;;5.07;2.70;;;;;;;11.86;81.04;93104.69;5050000;28;20113;-74
2022/09/21 11:47:41;;;;;;;8.20;3.00;;;;;;;11.82;80.78;93095.84;5065450;28;20395;-74
2022/09/21 11:50:23;;;;;;;7.78;2.67;;;;;;;11.86;81.74;93096.03;5058283;28;20364;-74
2022/09/21 11:53:08;;;;;;;4.63;2.65;;;;;;;11.88;83.10;93092.09;5042307;28;20037;-74
2022/09/21 11:56:06;;;;;;;7.78;3.35;;;;;;;11.95;85.44;93093.63;5028608;28;20046;-74
2022/09/21 11:58:56;;;;;;;6.78;2.92;;;;;;;12.02;88.15;93091.44;5030129;28;20045;-74
2022/09/21 12:01:47;;;;;;;5.97;3.08;;;;;;;12.05;88.64;93088.28;5032661;28;20057;-74